Time;durP1;ratioP1;P1;durP2;ratioP2;P2;SDS_P1;SDS_P2;PMS_P1;PMS_P2;Temp;Humidity;BMP_temperature;BMP_pressure;BME280_temperature;BME280_humidity;BME280_pressure;Samples;Min_cycle;Max_cycle;Signal;HPM_P1;HPM_P2
2023/01/15 00:01:35;;;;;;;7.97;1.38;;;9.00;99.90;;;;;;5078739;28;20032;-72
2023/01/15 00:04:04;;;;;;;4.20;1.10;;;9.00;99.90;;;;;;5044924;28;20036;-71
2023/01/15 00:06:31;;;;;;;3.45;0.80;;;9.10;99.90;;;;;;5078578;28;20033;-72
2023/01/15 00:08:57;;;;;;;10.52;1.30;;;9.10;99.90;;;;;;5061144;28;20029;-72
2023/01/15 00:11:23;;;;;;;5.60;1.40;;;9.20;99.90;;;;;;5044621;28;20044;-72
2023/01/15 00:13:50;;;;;;;8.98;1.30;;;9.20;99.90;;;;;;5060985;28;20028;-68
2023/01/15 00:16:20;;;;;;;7.15;1.02;;;9.10;99.90;;;;;;5060924;28;20029;-71
2023/01/15 00:18:54;;;;;;;6.70;1.35;;;9.10;99.90;;;;;;5044749;28;20025;-73
2023/01/15 00:21:21;;;;;;;6.82;1.10;;;9.10;99.90;;;;;;5061037;28;20036;-71
2023/01/15 00:29:18;;;;;;;7.60;1.17;;;9.00;99.90;;;;;;5060563;28;20120;-68
2023/01/15 00:31:58;;;;;;;6.05;1.17;;;8.90;99.90;;;;;;5060622;28;20040;-72
2023/01/15 00:34:25;;;;;;;8.15;1.45;;;8.90;99.90;;;;;;5060620;28;20024;-69
2023/01/15 00:36:51;;;;;;;6.25;1.05;;;8.90;99.90;;;;;;5060568;28;20029;-69
2023/01/15 00:39:17;;;;;;;9.25;1.17;;;8.90;99.90;;;;;;5044106;28;20464;-72
2023/01/15 00:41:43;;;;;;;8.73;1.20;;;8.90;99.90;;;;;;5061056;28;20056;-71
2023/01/15 00:44:09;;;;;;;7.43;1.13;;;8.90;99.90;;;;;;5077841;28;20046;-72
2023/01/15 00:46:36;;;;;;;4.38;1.15;;;8.70;99.90;;;;;;5078793;28;20040;-72
2023/01/15 00:49:03;;;;;;;7.43;1.25;;;8.80;99.90;;;;;;5061385;28;20044;-69
2023/01/15 00:51:28;;;;;;;5.72;1.27;;;8.80;99.90;;;;;;5077647;28;20048;-68
2023/01/15 00:53:54;;;;;;;9.40;1.40;;;8.90;99.90;;;;;;5060143;28;20037;-71
2023/01/15 00:56:20;;;;;;;9.18;1.00;;;8.80;99.90;;;;;;5060441;28;20097;-70
2023/01/15 00:58:46;;;;;;;8.00;1.25;;;8.80;99.90;;;;;;5060140;28;20411;-71
2023/01/15 01:01:13;;;;;;;5.93;1.17;;;8.70;99.90;;;;;;5060063;28;20123;-73
2023/01/15 01:03:39;;;;;;;6.57;1.70;;;8.60;99.90;;;;;;5060063;28;20029;-73
2023/01/15 01:06:06;;;;;;;7.78;1.05;;;8.60;99.90;;;;;;5060423;28;20047;-71
2023/01/15 01:08:33;;;;;;;6.90;1.27;;;8.70;99.90;;;;;;5043902;28;20123;-71
2023/01/15 01:11:04;;;;;;;7.47;1.13;;;8.90;99.90;;;;;;5060219;28;20276;-70
2023/01/15 01:13:30;;;;;;;6.25;1.30;;;8.80;99.90;;;;;;5077317;28;20376;-70
2023/01/15 01:15:56;;;;;;;8.25;1.15;;;8.80;99.90;;;;;;5060180;28;20032;-71
2023/01/15 01:18:22;;;;;;;5.38;1.20;;;8.80;99.90;;;;;;5059583;28;20098;-71
2023/01/15 01:20:48;;;;;;;4.97;1.17;;;8.80;99.90;;;;;;5077166;28;20384;-71
2023/01/15 01:23:14;;;;;;;7.00;1.40;;;8.80;99.90;;;;;;5043362;28;20036;-69
2023/01/15 01:25:40;;;;;;;7.90;1.73;;;8.80;99.90;;;;;;5043189;28;20048;-70
2023/01/15 01:28:06;;;;;;;8.15;1.13;;;8.90;99.90;;;;;;5077040;28;20032;-71
2023/01/15 01:30:32;;;;;;;6.70;1.30;;;8.90;99.90;;;;;;5060217;28;20023;-71
2023/01/15 01:32:58;;;;;;;7.43;1.55;;;8.90;99.90;;;;;;5059730;28;20115;-69
2023/01/15 01:35:24;;;;;;;8.07;1.60;;;8.60;99.90;;;;;;5077142;28;20024;-72
2023/01/15 01:37:51;;;;;;;6.97;1.15;;;8.60;99.90;;;;;;5043410;28;20025;-70
2023/01/15 01:40:18;;;;;;;5.90;1.08;;;8.60;99.90;;;;;;5059678;28;20315;-70
2023/01/15 01:42:44;;;;;;;9.15;1.35;;;8.60;99.90;;;;;;5076934;28;20025;-73
2023/01/15 01:45:23;;;;;;;7.93;1.20;;;8.60;99.90;;;;;;5076998;28;20265;-74
2023/01/15 01:47:52;;;;;;;6.45;1.10;;;8.60;99.90;;;;;;5059417;28;20043;-70
2023/01/15 01:50:18;;;;;;;11.88;1.90;;;8.60;99.90;;;;;;5060015;28;20477;-73
2023/01/15 01:52:53;;;;;;;9.80;1.50;;;8.50;99.90;;;;;;5059586;28;20032;-72
2023/01/15 01:55:22;;;;;;;9.15;1.70;;;8.50;99.90;;;;;;5077207;28;20107;-72
2023/01/15 01:57:50;;;;;;;4.10;1.20;;;8.60;99.90;;;;;;5076869;28;20098;-70
2023/01/15 02:00:18;;;;;;;7.80;1.60;;;8.50;99.90;;;;;;5042884;28;20368;-72
2023/01/15 02:02:46;;;;;;;8.60;1.10;;;8.60;99.90;;;;;;5076853;28;20041;-72
2023/01/15 02:05:22;;;;;;;6.25;1.20;;;8.60;99.90;;;;;;5076860;28;20307;-70
2023/01/15 02:07:48;;;;;;;6.55;0.82;;;8.50;99.90;;;;;;5076849;28;20028;-72
2023/01/15 02:10:15;;;;;;;6.70;1.17;;;8.50;99.90;;;;;;5042651;28;20033;-70
2023/01/15 02:12:44;;;;;;;8.68;1.65;;;8.40;99.90;;;;;;5059700;28;20039;-70
2023/01/15 02:15:23;;;;;;;5.85;1.17;;;8.40;99.90;;;;;;5076789;28;20418;-69
2023/01/15 02:18:22;;;;;;;5.97;1.23;;;8.50;99.90;;;;;;5076852;28;20331;-70
2023/01/15 02:21:03;;;;;;;5.50;1.02;;;8.40;99.90;;;;;;5059105;28;20086;-70
2023/01/15 02:23:39;;;;;;;7.88;1.33;;;8.40;99.90;;;;;;5059228;28;20054;-70
2023/01/15 02:26:23;;;;;;;8.55;1.45;;;8.50;99.90;;;;;;5077209;28;20086;-72
2023/01/15 02:28:52;;;;;;;7.53;1.13;;;8.40;99.90;;;;;;5076459;28;20415;-73
2023/01/15 02:31:37;;;;;;;9.82;1.65;;;8.30;99.90;;;;;;5060917;28;20021;-75
2023/01/15 02:34:19;;;;;;;5.28;1.20;;;8.30;99.90;;;;;;5063160;28;20031;-72
2023/01/15 02:36:50;;;;;;;7.60;1.20;;;8.30;99.90;;;;;;5046438;28;20036;-71
2023/01/15 02:39:26;;;;;;;9.25;1.08;;;8.40;99.90;;;;;;5063080;28;20119;-73
2023/01/15 02:41:57;;;;;;;10.65;1.20;;;8.40;99.90;;;;;;5062970;28;20107;-72
2023/01/15 02:44:29;;;;;;;6.63;1.23;;;8.40;99.90;;;;;;5063039;28;20287;-72
2023/01/15 02:46:58;;;;;;;11.55;1.17;;;8.30;99.90;;;;;;5080084;28;20100;-72
2023/01/15 02:49:26;;;;;;;11.20;1.23;;;8.30;99.90;;;;;;5062435;28;20039;-73
2023/01/15 02:52:05;;;;;;;7.90;1.27;;;8.20;99.90;;;;;;5062776;28;20362;-71
2023/01/15 02:54:40;;;;;;;9.32;1.25;;;8.20;99.90;;;;;;5062542;28;20024;-72
2023/01/15 02:57:10;;;;;;;10.88;1.63;;;8.20;99.90;;;;;;5046267;28;20032;-73
2023/01/15 02:59:41;;;;;;;10.05;1.50;;;8.20;99.90;;;;;;5063391;28;20328;-71
2023/01/15 03:02:15;;;;;;;11.68;1.20;;;8.10;99.90;;;;;;5062506;28;20032;-70
2023/01/15 03:05:06;;;;;;;8.80;1.20;;;8.10;99.90;;;;;;5045807;28;20031;-71
2023/01/15 03:07:45;;;;;;;3.90;1.02;;;8.10;99.90;;;;;;5046343;28;20129;-70
2023/01/15 03:10:13;;;;;;;15.32;1.52;;;8.00;99.90;;;;;;5062523;28;20388;-70
2023/01/15 03:13:03;;;;;;;10.52;1.27;;;7.90;99.90;;;;;;5029404;28;20414;-71
2023/01/15 03:19:11;;;;;;;10.88;1.40;;;7.90;99.90;;;;;;5079760;28;20407;-72
2023/01/15 03:22:01;;;;;;;7.78;1.25;;;7.90;99.90;;;;;;5062282;28;20033;-72
2023/01/15 03:24:47;;;;;;;10.13;1.65;;;7.80;99.90;;;;;;5062098;28;20304;-72
2023/01/15 03:27:15;;;;;;;9.77;1.70;;;7.90;99.90;;;;;;5061905;28;20115;-70
2023/01/15 03:29:48;;;;;;;8.43;1.35;;;7.90;99.90;;;;;;5062067;28;20028;-71
2023/01/15 03:32:16;;;;;;;11.68;1.70;;;7.80;99.90;;;;;;5079354;28;20074;-71
2023/01/15 03:34:50;;;;;;;11.82;1.83;;;7.90;99.90;;;;;;5061822;28;20040;-72
2023/01/15 03:37:23;;;;;;;7.78;1.17;;;7.90;99.90;;;;;;5061761;28;20085;-72
2023/01/15 03:39:51;;;;;;;10.13;1.77;;;7.90;99.90;;;;;;5046193;28;20025;-71
2023/01/15 03:45:44;;;;;;;9.35;1.60;;;7.80;99.90;;;;;;5061563;28;20320;-71
2023/01/15 03:48:25;;;;;;;8.32;1.40;;;7.70;99.90;;;;;;5079014;28;20037;-72
2023/01/15 03:51:18;;;;;;;10.55;1.85;;;7.80;99.90;;;;;;5061294;28;20091;-71
2023/01/15 03:53:49;;;;;;;11.38;1.40;;;7.80;99.90;;;;;;5061579;28;20029;-72
2023/01/15 03:56:54;;;;;;;6.07;1.23;;;7.90;99.90;;;;;;5061304;28;20292;-73
2023/01/15 03:59:32;;;;;;;12.00;1.38;;;7.90;99.90;;;;;;5034513;28;20285;-72
2023/01/15 04:02:04;;;;;;;11.38;1.42;;;7.80;99.90;;;;;;5061321;28;20307;-73
2023/01/15 04:04:31;;;;;;;9.30;1.40;;;7.60;99.90;;;;;;5061317;28;20101;-72
2023/01/15 04:07:01;;;;;;;11.25;1.42;;;7.60;99.90;;;;;;5044832;28;20163;-72
2023/01/15 04:09:27;;;;;;;6.40;1.25;;;7.50;99.90;;;;;;5044625;28;20037;-71
2023/01/15 04:12:00;;;;;;;7.70;1.50;;;7.50;99.90;;;;;;5061015;28;20028;-71
2023/01/15 04:14:29;;;;;;;6.72;1.50;;;7.60;99.90;;;;;;5044662;28;20058;-71
2023/01/15 04:16:57;;;;;;;8.77;1.48;;;7.70;99.90;;;;;;5078438;28;20032;-71
2023/01/15 04:19:24;;;;;;;10.77;1.45;;;7.70;99.90;;;;;;5078439;28;20278;-71
2023/01/15 04:21:57;;;;;;;8.13;1.40;;;7.70;99.90;;;;;;5060914;28;20363;-71
2023/01/15 04:24:24;;;;;;;7.80;1.38;;;7.80;99.90;;;;;;5044364;28;20052;-69
2023/01/15 04:26:50;;;;;;;6.70;1.02;;;7.80;99.90;;;;;;5060922;28;20105;-70
2023/01/15 04:29:15;;;;;;;12.80;1.77;;;7.80;99.90;;;;;;5061422;28;20392;-68
2023/01/15 04:31:41;;;;;;;8.63;1.10;;;7.80;99.90;;;;;;5060824;28;20082;-70
2023/01/15 04:34:07;;;;;;;14.57;1.70;;;7.70;99.90;;;;;;5060855;28;20477;-69
2023/01/15 04:36:36;;;;;;;11.70;1.48;;;7.70;99.90;;;;;;5061042;28;20040;-71
2023/01/15 04:39:03;;;;;;;8.43;1.35;;;7.70;99.90;;;;;;5060927;28;20127;-72
2023/01/15 04:44:14;;;;;;;9.90;1.27;;;7.80;99.90;;;;;;5078522;28;20043;-71
2023/01/15 04:46:43;;;;;;;7.65;1.10;;;7.80;99.90;;;;;;5060608;28;20037;-70
2023/01/15 04:49:14;;;;;;;11.23;1.85;;;7.70;99.90;;;;;;5060602;28;20035;-70
2023/01/15 04:51:40;;;;;;;9.35;1.13;;;7.50;99.90;;;;;;5077986;28;20040;-71
2023/01/15 04:54:08;;;;;;;6.55;1.23;;;7.50;99.90;;;;;;5077043;28;20036;-71
2023/01/15 04:56:39;;;;;;;7.10;1.00;;;7.50;99.90;;;;;;5043850;28;20305;-65
2023/01/15 04:59:05;;;;;;;13.90;1.60;;;7.40;99.90;;;;;;5078314;28;20033;-71
2023/01/15 05:01:31;;;;;;;8.20;1.42;;;7.30;99.90;;;;;;5060289;28;20459;-71
2023/01/15 05:03:57;;;;;;;9.43;1.50;;;7.30;99.90;;;;;;5043741;28;20033;-73
2023/01/15 05:06:24;;;;;;;11.70;1.75;;;7.50;99.90;;;;;;5043769;28;20052;-73
2023/01/15 05:08:50;;;;;;;9.70;1.40;;;7.50;99.90;;;;;;5060537;28;20032;-71
2023/01/15 05:11:16;;;;;;;11.32;1.83;;;7.40;99.90;;;;;;5060710;28;20093;-72
2023/01/15 05:13:42;;;;;;;10.30;1.20;;;7.50;99.90;;;;;;5060432;28;20040;-72
2023/01/15 05:16:14;;;;;;;9.57;1.17;;;7.50;99.90;;;;;;5060188;28;20040;-71
2023/01/15 05:18:42;;;;;;;7.80;1.10;;;7.50;99.90;;;;;;5077441;28;20032;-71
2023/01/15 05:21:23;;;;;;;5.72;1.33;;;7.40;99.90;;;;;;5077314;28;20133;-71
2023/01/15 05:23:50;;;;;;;7.15;1.17;;;7.50;99.90;;;;;;5077588;28;20039;-74
2023/01/15 05:26:17;;;;;;;9.27;1.58;;;7.60;99.90;;;;;;5077523;28;20033;-72
2023/01/15 05:28:43;;;;;;;7.97;1.25;;;7.70;99.90;;;;;;5059942;28;20024;-72
2023/01/15 05:31:12;;;;;;;5.97;0.95;;;7.80;99.90;;;;;;5059769;28;20086;-71
2023/01/15 05:33:39;;;;;;;6.47;1.05;;;7.70;99.90;;;;;;5077107;28;20414;-73
2023/01/15 05:36:11;;;;;;;10.07;1.05;;;7.60;99.90;;;;;;5077150;28;20036;-70
2023/01/15 05:38:37;;;;;;;5.65;0.98;;;7.40;99.90;;;;;;5077041;28;20119;-72
2023/01/15 05:41:47;;;;;;;5.30;1.17;;;7.30;99.90;;;;;;5043252;28;20060;-72
2023/01/15 05:43:54;;;;;;;6.18;1.10;;;7.20;99.90;;;;;;5076913;28;20047;-72
2023/01/15 05:46:20;;;;;;;6.60;1.00;;;7.20;99.90;;;;;;5077006;28;20090;-70
2023/01/15 05:48:46;;;;;;;7.65;1.30;;;7.30;99.90;;;;;;5059463;28;20319;-72
2023/01/15 05:51:12;;;;;;;7.78;1.35;;;7.20;99.90;;;;;;5059319;28;20056;-71
2023/01/15 05:53:38;;;;;;;7.03;1.25;;;7.10;99.90;;;;;;5059454;28;20357;-71
2023/01/15 05:56:05;;;;;;;6.47;1.45;;;7.10;99.90;;;;;;5077274;28;20080;-71
2023/01/15 05:58:31;;;;;;;10.02;1.25;;;7.10;99.90;;;;;;5076863;28;20037;-73
2023/01/15 06:00:57;;;;;;;8.55;1.30;;;7.10;99.90;;;;;;5059421;28;20024;-73
2023/01/15 06:03:25;;;;;;;6.55;0.82;;;7.10;99.90;;;;;;5076860;28;20029;-72
2023/01/15 06:05:54;;;;;;;7.35;1.30;;;7.10;99.90;;;;;;5079547;28;20314;-71
2023/01/15 06:08:23;;;;;;;8.15;1.17;;;7.10;99.90;;;;;;5063472;28;20043;-72
2023/01/15 06:10:49;;;;;;;6.75;0.75;;;7.10;99.90;;;;;;5063449;28;20032;-72
2023/01/15 06:13:16;;;;;;;7.32;1.00;;;7.10;99.90;;;;;;5080664;28;20081;-71
2023/01/15 06:15:43;;;;;;;4.05;0.80;;;7.00;99.90;;;;;;5081187;28;20123;-71
2023/01/15 06:18:09;;;;;;;5.38;0.90;;;7.10;99.90;;;;;;5080898;28;20029;-70
2023/01/15 06:20:36;;;;;;;9.75;1.10;;;7.10;99.90;;;;;;5063269;28;20033;-73
2023/01/15 06:23:02;;;;;;;11.30;1.42;;;7.10;99.90;;;;;;5063541;28;20024;-73
2023/01/15 06:25:28;;;;;;;5.43;0.93;;;7.00;99.90;;;;;;5063367;28;20039;-71
2023/01/15 06:27:53;;;;;;;6.30;1.38;;;7.00;99.90;;;;;;5063140;28;20039;-71
2023/01/15 06:30:19;;;;;;;4.57;0.70;;;6.90;99.90;;;;;;5062899;28;20032;-69
2023/01/15 06:32:45;;;;;;;4.40;0.73;;;6.90;99.90;;;;;;5063121;28;20101;-70
2023/01/15 06:35:11;;;;;;;4.40;1.33;;;6.80;99.90;;;;;;5063119;28;20415;-68
2023/01/15 06:37:37;;;;;;;5.47;0.73;;;6.80;99.90;;;;;;5046415;28;20028;-69
2023/01/15 06:40:03;;;;;;;4.75;0.90;;;6.70;99.90;;;;;;5062765;28;20036;-73
2023/01/15 06:47:58;;;;;;;5.38;0.80;;;6.60;99.90;;;;;;5048877;28;20063;-65
2023/01/15 06:50:24;;;;;;;3.25;0.82;;;6.50;99.90;;;;;;5059353;28;20049;-69
2023/01/15 06:52:51;;;;;;;1.60;0.55;;;6.50;99.90;;;;;;5059249;28;20304;-70
2023/01/15 06:55:17;;;;;;;2.28;0.52;;;6.50;99.90;;;;;;5060486;28;20044;-71
2023/01/15 06:57:44;;;;;;;4.50;0.52;;;6.40;99.90;;;;;;5060221;28;20104;-71
2023/01/15 07:00:10;;;;;;;4.28;0.68;;;6.40;99.90;;;;;;5059911;28;20343;-70
2023/01/15 07:02:37;;;;;;;4.80;0.60;;;6.40;99.90;;;;;;5060082;28;20043;-71
2023/01/15 07:05:03;;;;;;;2.03;0.68;;;6.40;99.90;;;;;;5059802;28;20130;-71
2023/01/15 07:07:29;;;;;;;3.80;0.95;;;6.50;99.90;;;;;;5059623;28;20071;-70
2023/01/15 07:09:55;;;;;;;5.47;0.65;;;6.40;99.90;;;;;;5058868;28;20047;-66
2023/01/15 07:12:22;;;;;;;7.20;0.75;;;6.30;99.90;;;;;;5059555;28;20120;-70
2023/01/15 07:14:48;;;;;;;6.00;1.10;;;6.20;99.90;;;;;;5059619;28;20033;-71
2023/01/15 07:17:14;;;;;;;4.10;0.75;;;6.20;99.90;;;;;;5058793;28;20032;-70
2023/01/15 07:19:40;;;;;;;7.28;0.82;;;6.10;99.90;;;;;;5059572;28;20029;-69
2023/01/15 07:22:06;;;;;;;7.25;1.08;;;6.10;99.90;;;;;;5042257;28;20051;-71
2023/01/15 07:24:33;;;;;;;5.65;1.13;;;6.00;99.90;;;;;;5042218;28;20274;-72
2023/01/15 07:26:59;;;;;;;9.35;0.93;;;6.00;99.90;;;;;;5059320;28;20036;-71
2023/01/15 07:29:25;;;;;;;7.53;0.93;;;6.10;99.90;;;;;;5042042;28;20037;-69
2023/01/15 07:31:51;;;;;;;2.63;0.68;;;6.10;99.90;;;;;;5058486;28;20025;-70
2023/01/15 07:34:17;;;;;;;5.38;1.15;;;6.00;99.90;;;;;;5058551;28;20148;-71
2023/01/15 07:36:43;;;;;;;4.05;0.88;;;6.00;99.90;;;;;;5059159;28;20135;-68
2023/01/15 07:39:10;;;;;;;7.40;1.00;;;5.90;99.90;;;;;;5058485;28;20037;-70
2023/01/15 07:50:18;;;;;;;8.73;0.80;;;5.80;99.90;;;;;;5057838;28;20052;-69
2023/01/15 07:52:44;;;;;;;5.28;0.80;;;5.80;99.90;;;;;;5058303;28;20041;-72
2023/01/15 07:55:11;;;;;;;4.38;0.90;;;5.80;99.90;;;;;;5057984;28;20381;-71
2023/01/15 07:57:37;;;;;;;7.40;0.95;;;5.80;99.90;;;;;;5057981;28;20028;-71
2023/01/15 08:00:11;;;;;;;8.40;0.95;;;5.80;99.90;;;;;;5058847;28;20033;-70
2023/01/15 08:02:40;;;;;;;5.28;0.73;;;5.80;99.90;;;;;;5058371;28;20071;-73
2023/01/15 08:05:07;;;;;;;7.50;1.40;;;5.90;99.90;;;;;;5041260;28;20029;-70
2023/01/15 08:07:40;;;;;;;5.28;1.27;;;5.90;99.90;;;;;;5057908;28;20174;-70
2023/01/15 08:10:08;;;;;;;6.18;0.90;;;5.90;99.90;;;;;;5059201;28;20041;-71
2023/01/15 08:15:18;;;;;;;6.57;1.90;;;5.90;99.90;;;;;;5058655;28;20044;-73
2023/01/15 08:17:46;;;;;;;7.35;1.52;;;5.90;99.90;;;;;;5057800;28;20376;-72
2023/01/15 08:20:17;;;;;;;5.80;1.00;;;5.90;99.90;;;;;;5058454;28;20055;-69
2023/01/15 08:22:43;;;;;;;6.68;1.17;;;6.00;99.90;;;;;;5058411;28;20028;-71
2023/01/15 08:25:12;;;;;;;7.63;1.02;;;6.00;99.90;;;;;;5041093;28;20307;-72
2023/01/15 08:27:39;;;;;;;14.73;1.83;;;6.00;99.90;;;;;;5040466;28;20060;-66
2023/01/15 08:30:08;;;;;;;9.35;1.45;;;6.00;99.90;;;;;;5057565;28;20082;-70
2023/01/15 08:32:34;;;;;;;12.15;1.80;;;6.00;99.90;;;;;;5057418;28;20089;-72
2023/01/15 08:34:59;;;;;;;10.50;1.15;;;6.00;99.90;;;;;;5058262;28;20404;-72
2023/01/15 08:37:26;;;;;;;5.43;1.10;;;6.10;99.90;;;;;;5057302;28;20407;-72
2023/01/15 08:39:52;;;;;;;8.95;1.25;;;6.10;99.90;;;;;;5057524;28;20025;-71
2023/01/15 08:42:19;;;;;;;8.48;1.20;;;6.10;99.90;;;;;;5057255;28;20124;-69
2023/01/15 08:44:46;;;;;;;8.75;1.40;;;6.20;99.90;;;;;;5058183;28;20032;-71
2023/01/15 08:47:12;;;;;;;10.77;1.23;;;6.10;99.90;;;;;;5058041;28;20021;-68
2023/01/15 08:49:38;;;;;;;6.30;1.27;;;6.20;99.90;;;;;;5053766;28;20053;-67
2023/01/15 08:52:04;;;;;;;14.25;1.80;;;6.20;99.90;;;;;;5038230;28;20033;-71
2023/01/15 08:54:30;;;;;;;7.10;1.77;;;6.20;99.90;;;;;;5038048;28;20033;-70
2023/01/15 08:56:58;;;;;;;8.15;1.25;;;6.30;99.90;;;;;;5037213;28;20312;-67
2023/01/15 08:59:24;;;;;;;7.57;1.20;;;6.30;99.90;;;;;;5037769;28;20377;-70
2023/01/15 09:01:50;;;;;;;6.65;1.00;;;6.50;99.90;;;;;;5037194;28;20056;-70
2023/01/15 09:04:18;;;;;;;6.90;1.15;;;6.60;99.90;;;;;;5037002;28;20048;-69
2023/01/15 09:06:44;;;;;;;6.70;1.10;;;6.70;99.90;;;;;;5037069;28;20037;-69
2023/01/15 09:09:10;;;;;;;10.00;1.40;;;6.70;99.90;;;;;;5020426;28;20033;-69
2023/01/15 09:11:39;;;;;;;9.88;1.60;;;6.70;99.90;;;;;;5037292;28;20026;-70
2023/01/15 09:14:06;;;;;;;5.32;1.00;;;6.90;99.90;;;;;;5038150;28;20022;-69
2023/01/15 09:16:32;;;;;;;6.90;1.35;;;6.90;99.90;;;;;;5036978;28;20036;-67
2023/01/15 09:18:58;;;;;;;5.80;1.23;;;6.90;99.90;;;;;;5037516;28;20041;-69
2023/01/15 09:21:24;;;;;;;6.53;1.10;;;7.00;99.90;;;;;;5020404;28;20117;-63
2023/01/15 09:23:50;;;;;;;7.43;1.27;;;7.00;99.90;;;;;;5036797;28;20034;-64
2023/01/15 09:26:30;;;;;;;10.57;2.08;;;7.00;99.90;;;;;;5037349;28;20037;-62
2023/01/15 09:28:56;;;;;;;6.80;1.30;;;7.00;99.90;;;;;;5020114;28;20129;-72
2023/01/15 09:31:23;;;;;;;8.77;1.42;;;7.00;99.90;;;;;;5020438;28;20033;-69
2023/01/15 09:33:49;;;;;;;7.32;1.52;;;7.00;99.90;;;;;;5037183;28;20117;-67
2023/01/15 09:36:29;;;;;;;11.30;1.20;;;7.00;99.90;;;;;;5019916;28;20121;-69
2023/01/15 09:38:56;;;;;;;8.88;1.17;;;7.00;99.90;;;;;;5037050;28;20087;-65
2023/01/15 09:44:27;;;;;;;7.55;1.38;;;6.80;99.90;;;;;;5037494;28;20026;-66
2023/01/15 09:47:14;;;;;;;6.53;1.05;;;6.80;99.90;;;;;;5037309;28;20274;-66
2023/01/15 09:49:45;;;;;;;4.32;0.93;;;6.80;99.90;;;;;;5045736;28;20048;-66
2023/01/15 09:52:37;;;;;;;7.18;0.93;;;6.90;99.90;;;;;;5043000;28;20048;-66
2023/01/15 09:55:14;;;;;;;5.82;0.93;;;6.80;99.90;;;;;;5077444;28;20035;-63
2023/01/15 09:57:41;;;;;;;6.28;0.85;;;6.90;99.90;;;;;;5076729;28;20380;-63
2023/01/15 10:00:19;;;;;;;7.18;1.10;;;6.90;99.90;;;;;;5076860;28;20024;-68
2023/01/15 10:02:57;;;;;;;6.40;1.05;;;6.90;99.90;;;;;;5059417;28;20358;-64
2023/01/15 10:05:51;;;;;;;7.75;1.30;;;7.10;99.90;;;;;;5077281;28;20024;-72
2023/01/15 10:08:24;;;;;;;8.18;1.35;;;7.20;99.90;;;;;;5059280;28;20108;-69
2023/01/15 10:11:04;;;;;;;5.53;1.00;;;7.40;99.90;;;;;;5076865;28;20383;-64
2023/01/15 10:13:45;;;;;;;5.65;1.25;;;7.30;99.90;;;;;;5042586;28;20047;-64
2023/01/15 10:16:18;;;;;;;3.55;1.33;;;7.40;99.90;;;;;;5076626;28;20024;-63
2023/01/15 10:18:47;;;;;;;3.17;0.70;;;7.40;99.90;;;;;;5076666;28;20028;-61
2023/01/15 10:21:31;;;;;;;4.10;0.70;;;7.40;99.90;;;;;;5042938;28;20025;-67
2023/01/15 10:24:23;;;;;;;2.88;0.57;;;7.40;99.90;;;;;;5076618;28;20423;-66
2023/01/15 10:26:56;;;;;;;4.32;0.88;;;7.40;99.90;;;;;;5059194;28;20032;-68
2023/01/15 10:29:36;;;;;;;4.32;0.80;;;7.40;99.90;;;;;;5077053;28;20068;-71
2023/01/15 10:32:23;;;;;;;3.35;0.73;;;7.60;99.90;;;;;;5058995;28;20024;-72
2023/01/15 10:35:07;;;;;;;2.22;0.50;;;7.70;99.90;;;;;;5059006;28;20040;-67
2023/01/15 10:37:58;;;;;;;3.83;1.05;;;7.70;99.90;;;;;;5058950;28;20027;-68
2023/01/15 10:40:50;;;;;;;3.22;0.50;;;7.70;99.90;;;;;;5058929;28;20119;-63
2023/01/15 10:43:45;;;;;;;4.28;0.55;;;7.70;99.90;;;;;;5058804;28;20040;-63
2023/01/15 10:46:17;;;;;;;1.27;0.50;;;7.30;99.90;;;;;;5058906;28;20092;-68
2023/01/15 10:48:56;;;;;;;4.93;0.75;;;7.50;99.90;;;;;;5058919;28;20068;-64
2023/01/15 10:51:26;;;;;;;2.80;0.60;;;7.70;99.90;;;;;;5058878;28;20048;-62
2023/01/15 10:54:06;;;;;;;1.65;0.52;;;7.40;99.90;;;;;;5080001;28;20035;-63
2023/01/15 10:56:44;;;;;;;3.50;0.75;;;7.30;99.90;;;;;;5062461;28;20024;-66
2023/01/15 10:59:34;;;;;;;4.10;0.60;;;7.60;99.90;;;;;;5080307;28;20044;-65
2023/01/15 11:02:02;;;;;;;3.20;0.80;;;7.70;99.90;;;;;;5061751;28;20045;-66
2023/01/15 11:04:31;;;;;;;4.90;0.70;;;7.90;99.90;;;;;;5062732;28;20423;-64
2023/01/15 11:06:59;;;;;;;7.43;0.70;;;8.00;99.90;;;;;;5079586;28;20025;-64
2023/01/15 11:09:35;;;;;;;2.88;0.60;;;8.00;99.90;;;;;;5062148;28;20051;-64
2023/01/15 11:20:56;;;;;;;4.13;0.68;;;7.60;99.90;;;;;;5061887;28;20400;-63
2023/01/15 11:23:23;;;;;;;3.42;0.77;;;7.40;99.90;;;;;;5061883;28;20037;-69
2023/01/15 11:26:00;;;;;;;3.88;0.82;;;7.30;99.90;;;;;;5062083;28;20162;-64
2023/01/15 11:28:42;;;;;;;5.28;0.93;;;7.30;99.90;;;;;;5079147;28;20032;-69
2023/01/15 11:31:09;;;;;;;5.43;0.70;;;7.40;99.90;;;;;;5079292;28;20089;-70
2023/01/15 11:33:36;;;;;;;2.83;0.70;;;7.50;99.90;;;;;;5061962;28;20024;-66
2023/01/15 11:36:05;;;;;;;6.13;1.17;;;7.60;99.90;;;;;;5061579;28;20422;-70
2023/01/15 11:38:43;;;;;;;5.75;0.90;;;7.80;99.90;;;;;;5078097;28;20056;-68
2023/01/15 11:53:01;;;;;;;4.03;0.82;;;8.10;99.90;;;;;;5079048;28;20026;-70
2023/01/15 11:55:28;;;;;;;2.08;0.65;;;8.00;99.90;;;;;;5078877;28;20033;-64
2023/01/15 11:57:56;;;;;;;5.43;1.00;;;8.10;99.90;;;;;;5078685;28;20035;-65
2023/01/15 12:00:26;;;;;;;5.28;1.42;;;8.00;99.90;;;;;;5078806;28;20299;-67
2023/01/15 12:02:59;;;;;;;2.75;1.00;;;8.10;99.90;;;;;;5044390;28;20021;-64
2023/01/15 12:05:29;;;;;;;5.65;0.98;;;8.20;99.90;;;;;;5061928;28;20036;-69
2023/01/15 12:08:00;;;;;;;4.80;0.90;;;7.90;99.90;;;;;;5061232;28;20042;-64
2023/01/15 12:11:04;;;;;;;4.00;1.00;;;8.00;99.90;;;;;;5078488;28;20028;-68
2023/01/15 12:13:42;;;;;;;6.80;1.55;;;8.00;99.90;;;;;;5047611;28;20060;-64
2023/01/15 12:16:30;;;;;;;3.38;1.20;;;7.80;99.90;;;;;;5078412;28;20024;-64
2023/01/15 12:18:59;;;;;;;3.08;0.95;;;7.90;99.90;;;;;;5061046;28;20462;-62
2023/01/15 12:21:43;;;;;;;2.67;1.00;;;7.80;99.90;;;;;;5060809;28;20055;-63
2023/01/15 12:24:27;;;;;;;3.83;1.00;;;7.90;99.90;;;;;;5078360;28;20024;-66
2023/01/15 12:27:08;;;;;;;4.95;1.02;;;8.10;99.90;;;;;;5078210;28;20295;-69
2023/01/15 12:29:44;;;;;;;5.30;1.00;;;7.90;99.90;;;;;;5078356;28;20028;-69
2023/01/15 12:32:16;;;;;;;2.90;0.90;;;8.00;99.90;;;;;;5078469;28;20036;-64
2023/01/15 12:35:14;;;;;;;5.38;0.80;;;7.90;99.90;;;;;;5077947;28;20028;-62
2023/01/15 12:37:49;;;;;;;4.90;0.85;;;8.00;99.90;;;;;;5078228;28;20024;-68
2023/01/15 12:40:18;;;;;;;4.97;1.00;;;8.00;99.90;;;;;;5060626;28;20029;-67
2023/01/15 12:45:47;;;;;;;3.38;1.00;;;8.10;99.90;;;;;;5077907;28;20071;-63
2023/01/15 12:48:45;;;;;;;6.45;1.13;;;7.90;99.90;;;;;;5077869;28;20036;-69
2023/01/15 12:51:19;;;;;;;4.07;0.70;;;8.00;99.90;;;;;;5044367;28;20131;-63
2023/01/15 12:53:50;;;;;;;4.88;1.00;;;8.10;99.90;;;;;;5060177;28;20300;-63
2023/01/15 12:56:32;;;;;;;4.15;0.90;;;8.00;99.90;;;;;;5060332;28;20304;-66
2023/01/15 12:59:05;;;;;;;3.87;0.70;;;8.00;99.90;;;;;;5077615;28;20299;-64
2023/01/15 13:01:50;;;;;;;7.80;1.00;;;8.10;99.90;;;;;;5077502;28;20059;-66
2023/01/15 13:04:34;;;;;;;5.60;0.80;;;8.10;99.90;;;;;;5078019;28;20036;-63
2023/01/15 13:07:14;;;;;;;4.88;1.15;;;8.20;99.90;;;;;;5060155;28;20033;-69
2023/01/15 13:10:20;;;;;;;3.25;0.90;;;8.20;99.90;;;;;;5043264;28;20032;-67
2023/01/15 13:12:46;;;;;;;3.17;1.20;;;8.10;99.90;;;;;;5016177;28;20048;-61
2023/01/15 13:15:14;;;;;;;3.90;0.80;;;8.10;99.90;;;;;;5064500;28;20108;-67
2023/01/15 13:18:03;;;;;;;5.60;0.98;;;8.20;99.90;;;;;;5077133;28;20060;-67
2023/01/15 13:20:48;;;;;;;4.57;0.95;;;8.40;99.90;;;;;;5077450;28;20047;-71
2023/01/15 13:23:32;;;;;;;4.32;0.80;;;8.40;99.90;;;;;;5059661;28;20404;-64
2023/01/15 13:26:26;;;;;;;4.97;1.17;;;8.40;99.90;;;;;;5060005;28;20028;-67
2023/01/15 13:29:07;;;;;;;5.05;0.80;;;8.40;99.90;;;;;;5077136;28;20033;-63
2023/01/15 13:31:49;;;;;;;3.95;1.15;;;8.40;99.90;;;;;;5077066;28;20388;-64
2023/01/15 13:34:29;;;;;;;2.30;0.77;;;8.30;99.90;;;;;;5060304;28;20032;-63
2023/01/15 13:37:02;;;;;;;6.65;0.93;;;8.30;99.90;;;;;;5077355;28;20273;-68
2023/01/15 13:39:39;;;;;;;5.18;0.88;;;8.30;99.90;;;;;;5077004;28;20043;-72
2023/01/15 13:44:52;;;;;;;4.78;1.00;;;8.40;99.90;;;;;;5062982;28;20047;-66
2023/01/15 13:47:23;;;;;;;4.35;0.80;;;8.50;99.90;;;;;;5077314;28;20032;-70
2023/01/15 13:49:58;;;;;;;4.82;0.80;;;8.50;99.90;;;;;;5059175;28;20045;-64
2023/01/15 13:52:27;;;;;;;3.65;0.77;;;8.60;99.90;;;;;;5076703;28;20047;-69
2023/01/15 13:54:57;;;;;;;4.53;1.00;;;8.50;99.90;;;;;;5059484;28;20021;-70
2023/01/15 13:57:33;;;;;;;4.97;0.80;;;8.40;99.90;;;;;;5076940;28;20082;-65
2023/01/15 14:00:00;;;;;;;5.05;0.70;;;8.20;99.90;;;;;;5077426;28;20118;-70
2023/01/15 14:02:29;;;;;;;3.00;0.70;;;8.30;99.90;;;;;;5059215;28;20041;-70
2023/01/15 14:04:55;;;;;;;2.15;0.65;;;8.30;99.90;;;;;;5076733;28;20028;-72
2023/01/15 14:07:41;;;;;;;2.75;0.65;;;8.40;99.90;;;;;;5042823;28;20064;-69
2023/01/15 14:10:16;;;;;;;1.73;0.68;;;8.40;99.90;;;;;;5059077;28;20324;-67
2023/01/15 14:12:42;;;;;;;1.83;0.60;;;8.30;99.90;;;;;;5059157;28;20035;-67
2023/01/15 14:15:36;;;;;;;3.22;0.70;;;8.30;99.90;;;;;;5059151;28;20024;-69
2023/01/15 14:18:20;;;;;;;2.75;0.60;;;8.50;99.90;;;;;;5076899;28;20028;-68
2023/01/15 14:21:02;;;;;;;2.47;0.60;;;8.40;99.90;;;;;;5076681;28;20044;-65